Time;durP1;ratioP1;P1;durP2;ratioP2;P2;SDS_P1;SDS_P2;PMS_P1;PMS_P2;Temp;Humidity;BMP_temperature;BMP_pressure;BME280_temperature;BME280_humidity;BME280_pressure;Samples;Min_cycle;Max_cycle;Signal;HPM_P1;HPM_P2
2023/01/01 00:02:01;;;;;;;27.42;18.77;;;;;;;5.90;54.57;95204.97;4990079;28;21025;-76
2023/01/01 00:04:27;;;;;;;36.28;22.27;;;;;;;5.99;55.04;95229.88;4988664;28;20119;-75
2023/01/01 00:06:53;;;;;;;32.63;20.33;;;;;;;5.98;54.86;95223.78;4983670;28;20026;-75
2023/01/01 00:12:03;;;;;;;27.70;16.38;;;;;;;6.06;55.02;95243.69;4988221;28;20498;-76
2023/01/01 00:14:28;;;;;;;9.93;7.63;;;;;;;6.11;55.02;95248.22;4991965;28;20073;-75
2023/01/01 00:16:54;;;;;;;7.10;6.00;;;;;;;6.09;54.77;95242.38;4987428;28;20139;-77
2023/01/01 00:19:20;;;;;;;7.00;5.05;;;;;;;5.80;54.74;95205.66;4991403;28;20178;-75
2023/01/01 00:21:45;;;;;;;11.00;6.72;;;;;;;5.99;54.46;95243.88;4992466;28;20117;-76
2023/01/01 00:24:11;;;;;;;12.43;8.93;;;;;;;6.06;54.83;95248.97;4991632;28;20477;-76
2023/01/01 00:26:36;;;;;;;12.10;9.13;;;;;;;6.01;54.70;95248.91;4995661;28;20048;-77
2023/01/01 00:29:03;;;;;;;12.23;7.63;;;;;;;6.06;54.00;95243.69;4991794;28;20034;-76
2023/01/01 00:31:29;;;;;;;7.68;5.93;;;;;;;5.97;53.59;95231.97;4993381;28;20050;-76
2023/01/01 00:33:55;;;;;;;12.50;8.32;;;;;;;5.73;54.30;95225.38;4991845;28;20026;-76
2023/01/01 00:36:22;;;;;;;11.93;7.90;;;;;;;5.70;54.67;95247.81;4989386;28;20507;-76
2023/01/01 00:38:47;;;;;;;15.05;9.95;;;;;;;5.65;54.85;95245.09;4992267;28;20044;-75
2023/01/01 00:41:15;;;;;;;15.90;11.02;;;;;;;5.70;55.06;95263.63;4990419;28;20034;-76
2023/01/01 00:43:41;;;;;;;20.85;13.77;;;;;;;5.66;55.26;95243.25;4986573;28;20488;-75
2023/01/01 00:46:06;;;;;;;27.10;18.02;;;;;;;5.70;54.89;95258.34;4991687;28;20029;-76
2023/01/01 00:48:32;;;;;;;17.67;11.07;;;;;;;5.71;54.89;95265.25;4992244;28;20444;-76
2023/01/01 00:50:58;;;;;;;11.63;7.57;;;;;;;5.69;54.88;95243.56;4991883;28;20053;-76
2023/01/01 00:53:23;;;;;;;29.73;20.08;;;;;;;5.72;54.89;95260.75;4990279;28;20038;-78
2023/01/01 00:55:50;;;;;;;24.48;17.77;;;;;;;5.74;54.71;95261.28;4990878;28;20045;-77
2023/01/01 00:58:17;;;;;;;20.00;14.07;;;;;;;5.62;55.01;95256.16;4988245;28;20057;-76
2023/01/01 01:00:43;;;;;;;23.25;16.02;;;;;;;5.61;55.27;95259.84;4992494;28;20362;-75
2023/01/01 01:03:26;;;;;;;31.85;21.65;;;;;;;5.60;55.08;95258.25;4990702;28;20045;-75
2023/01/01 01:06:14;;;;;;;37.47;23.92;;;;;;;5.43;55.73;95257.53;4987648;28;20037;-76
2023/01/01 01:08:42;;;;;;;38.08;22.75;;;;;;;5.41;55.71;95260.41;4991986;28;20045;-77
2023/01/01 01:11:22;;;;;;;26.75;17.50;;;;;;;5.37;55.92;95248.75;4988963;28;20121;-76
2023/01/01 01:13:50;;;;;;;23.65;16.30;;;;;;;5.39;55.72;95249.28;4988407;28;20037;-76
2023/01/01 01:16:22;;;;;;;23.33;15.63;;;;;;;5.34;55.88;95240.50;4992087;28;20050;-76
2023/01/01 01:18:50;;;;;;;19.98;13.75;;;;;;;5.38;55.57;95233.72;4990402;28;20072;-76
2023/01/01 01:21:18;;;;;;;15.88;11.07;;;;;;;5.44;55.65;95249.34;4989353;28;20161;-76
2023/01/01 01:23:44;;;;;;;18.48;13.80;;;;;;;5.36;55.92;95241.88;4990634;28;20037;-76
2023/01/01 01:26:18;;;;;;;14.05;10.45;;;;;;;5.32;56.15;95261.06;4991541;28;20512;-77
2023/01/01 01:28:43;;;;;;;11.35;7.45;;;;;;;5.26;56.02;95240.94;4989581;28;20033;-75
2023/01/01 01:31:09;;;;;;;11.82;7.30;;;;;;;5.27;55.96;95235.41;4988791;28;20042;-77
2023/01/01 01:33:35;;;;;;;10.10;7.45;;;;;;;5.22;56.09;95224.00;4990039;28;20563;-75
2023/01/01 01:36:01;;;;;;;11.43;6.88;;;;;;;5.33;56.17;95244.19;4991550;28;20046;-75
2023/01/01 01:38:26;;;;;;;12.30;7.88;;;;;;;5.25;55.87;95231.41;4988324;28;20231;-76
2023/01/01 01:40:52;;;;;;;13.82;7.57;;;;;;;5.22;55.31;95211.63;5003480;28;20045;-76
2023/01/01 01:43:32;;;;;;;8.75;7.72;;;;;;;5.47;54.95;95248.88;4990770;28;20060;-77
2023/01/01 01:46:03;;;;;;;14.98;8.38;;;;;;;5.42;55.47;95229.53;4990487;28;20576;-76
2023/01/01 01:48:35;;;;;;;18.15;10.55;;;;;;;5.30;55.10;95207.75;4989447;28;20026;-76
2023/01/01 01:51:00;;;;;;;32.58;18.42;;;;;;;5.20;56.00;95216.31;4988172;28;20136;-75
2023/01/01 01:53:29;;;;;;;39.30;24.17;;;;;;;4.99;56.98;95219.75;4989649;28;20038;-76
2023/01/01 01:56:04;;;;;;;40.97;25.92;;;;;;;5.04;57.08;95228.50;4988922;28;20044;-76
2023/01/01 01:58:31;;;;;;;34.72;21.67;;;;;;;4.98;56.79;95218.97;4990250;28;20119;-76
2023/01/01 02:00:58;;;;;;;17.65;12.15;;;;;;;5.09;56.61;95236.50;4985285;28;20030;-75
2023/01/01 02:03:33;;;;;;;11.10;7.85;;;;;;;5.11;56.34;95246.81;4991758;28;20029;-76
2023/01/01 02:06:00;;;;;;;11.65;8.68;;;;;;;4.94;56.32;95233.66;4989192;28;20035;-76
2023/01/01 02:08:27;;;;;;;15.52;10.15;;;;;;;5.10;56.39;95243.38;4986720;28;20061;-75
2023/01/01 02:10:52;;;;;;;19.77;12.07;;;;;;;5.25;56.07;95268.34;4989807;28;20030;-75
2023/01/01 02:13:17;;;;;;;20.13;15.15;;;;;;;5.13;56.07;95253.44;4991585;28;20409;-75
2023/01/01 02:15:55;;;;;;;20.77;14.02;;;;;;;5.18;56.08;95265.91;4980819;28;20081;-76
2023/01/01 02:18:29;;;;;;;25.05;14.55;;;;;;;5.03;56.59;95268.34;4993739;28;20034;-76
2023/01/01 02:21:26;;;;;;;26.02;15.60;;;;;;;5.10;56.44;95261.84;4988886;28;20081;-76
2023/01/01 02:24:14;;;;;;;13.43;10.02;;;;;;;5.18;56.49;95270.38;4979611;28;20072;-77
2023/01/01 02:26:46;;;;;;;16.20;10.38;;;;;;;5.11;56.38;95252.88;4991005;28;20627;-75
2023/01/01 02:29:32;;;;;;;26.35;12.68;;;;;;;5.10;56.39;95251.28;4989917;28;20057;-75
2023/01/01 02:32:00;;;;;;;32.65;20.88;;;;;;;5.04;56.51;95249.63;4986994;28;20034;-77
2023/01/01 02:34:38;;;;;;;33.70;21.63;;;;;;;5.03;56.44;95242.75;4990991;28;20050;-76
2023/01/01 02:37:07;;;;;;;37.67;22.50;;;;;;;5.12;56.51;95262.41;4989129;28;20579;-75
2023/01/01 02:39:37;;;;;;;37.20;22.52;;;;;;;5.10;56.50;95247.84;4989324;28;20500;-75
2023/01/01 02:42:06;;;;;;;36.05;21.80;;;;;;;5.21;56.24;95261.97;5007790;28;20034;-76
2023/01/01 02:44:35;;;;;;;26.25;17.67;;;;;;;5.14;56.35;95255.03;4989972;28;20387;-77
2023/01/01 02:47:09;;;;;;;20.48;12.43;;;;;;;4.86;56.63;95226.16;4993582;28;20034;-75
2023/01/01 02:49:39;;;;;;;12.85;9.13;;;;;;;4.96;56.53;95241.31;4993972;28;20726;-76
2023/01/01 02:52:35;;;;;;;18.73;11.55;;;;;;;4.95;56.48;95234.44;4992691;28;20022;-76
2023/01/01 02:55:21;;;;;;;23.15;11.43;;;;;;;4.95;56.54;95239.72;4990199;28;20037;-76
2023/01/01 03:01:04;;;;;;;25.35;15.70;;;;;;;4.88;57.15;95245.19;4965253;28;20129;-77
2023/01/01 03:03:41;;;;;;;22.60;15.43;;;;;;;4.97;57.12;95249.00;4974927;28;20061;-76
2023/01/01 03:06:32;;;;;;;16.58;11.13;;;;;;;4.99;56.88;95244.25;5009116;28;20041;-77
2023/01/01 03:09:10;;;;;;;16.55;11.00;;;;;;;5.11;56.47;95241.53;4993420;28;20125;-76
2023/01/01 03:11:47;;;;;;;11.70;8.30;;;;;;;5.03;56.77;95234.06;4994460;28;20412;-77
2023/01/01 03:14:23;;;;;;;12.38;8.00;;;;;;;5.11;56.58;95244.97;4995246;28;20038;-76
2023/01/01 03:16:51;;;;;;;11.68;8.00;;;;;;;5.01;56.61;95244.03;4992632;28;20073;-76
2023/01/01 03:19:19;;;;;;;14.45;8.80;;;;;;;4.94;57.25;95244.19;4995106;28;20041;-76
2023/01/01 03:21:58;;;;;;;20.58;14.13;;;;;;;4.81;57.32;95235.84;4992098;28;20026;-77
2023/01/01 03:24:32;;;;;;;21.25;12.73;;;;;;;4.87;57.40;95256.78;4994635;28;20043;-75
2023/01/01 03:27:03;;;;;;;21.20;12.73;;;;;;;4.84;57.00;95256.47;4992350;28;20472;-76
2023/01/01 03:29:33;;;;;;;33.08;19.10;;;;;;;4.87;57.20;95259.41;4994605;28;20097;-76
2023/01/01 03:32:02;;;;;;;38.13;24.38;;;;;;;4.87;57.24;95248.84;5008823;28;20038;-76
2023/01/01 03:34:33;;;;;;;44.40;26.15;;;;;;;4.81;57.43;95265.63;4985935;28;20038;-75
2023/01/01 03:37:04;;;;;;;37.97;22.85;;;;;;;4.80;57.39;95261.41;4993765;28;20030;-76
2023/01/01 03:39:35;;;;;;;33.72;21.60;;;;;;;4.84;57.34;95233.53;4993073;28;20046;-76
2023/01/01 03:42:11;;;;;;;30.55;20.00;;;;;;;4.91;56.51;95242.06;4992317;28;20049;-76
2023/01/01 03:44:46;;;;;;;35.42;22.20;;;;;;;4.82;57.09;95240.88;4990422;28;20156;-77
2023/01/01 03:47:12;;;;;;;46.13;29.05;;;;;;;4.80;57.53;95242.16;4992862;28;20612;-77
2023/01/01 03:49:37;;;;;;;50.25;32.00;;;;;;;4.89;57.14;95252.06;4994551;28;20117;-75
2023/01/01 03:52:17;;;;;;;53.13;35.97;;;;;;;4.76;57.50;95241.84;4991816;28;20040;-76
2023/01/01 03:55:05;;;;;;;55.53;35.75;;;;;;;4.72;58.13;95258.38;5009213;28;20422;-76
2023/01/01 03:57:44;;;;;;;53.70;33.50;;;;;;;4.64;58.41;95255.13;4991731;28;20046;-76
2023/01/01 04:00:15;;;;;;;48.08;31.25;;;;;;;4.64;58.85;95259.59;4991626;28;20049;-77
2023/01/01 04:03:01;;;;;;;37.33;25.52;;;;;;;4.75;58.35;95257.91;4989984;28;20045;-75
2023/01/01 04:05:28;;;;;;;22.50;14.48;;;;;;;4.66;58.33;95236.41;4990431;28;20042;-75
2023/01/01 04:07:55;;;;;;;12.38;9.35;;;;;;;4.73;57.90;95252.88;4992960;28;20026;-76
2023/01/01 04:10:22;;;;;;;15.07;8.63;;;;;;;4.72;57.32;95238.09;4988346;28;20426;-75
2023/01/01 04:12:54;;;;;;;16.95;9.50;;;;;;;4.74;57.40;95258.94;4993061;28;20030;-76
2023/01/01 04:15:25;;;;;;;22.85;12.52;;;;;;;4.77;57.01;95240.81;4969655;28;20050;-76
2023/01/01 04:17:52;;;;;;;44.33;27.08;;;;;;;4.65;57.47;95240.09;4989555;28;20055;-76
2023/01/01 04:20:18;;;;;;;54.70;33.38;;;;;;;4.70;57.54;95258.59;4990930;28;20447;-75
2023/01/01 04:22:44;;;;;;;59.00;34.90;;;;;;;4.71;57.59;95260.22;4993658;28;20037;-75
2023/01/01 04:25:10;;;;;;;54.70;32.25;;;;;;;4.66;58.16;95254.88;4990831;28;20038;-78
2023/01/01 04:27:36;;;;;;;52.17;34.97;;;;;;;4.58;58.38;95255.28;4994721;28;20025;-75
2023/01/01 04:30:04;;;;;;;49.10;30.88;;;;;;;4.52;58.39;95266.78;4992806;28;20041;-76
2023/01/01 04:32:29;;;;;;;46.47;29.83;;;;;;;4.64;58.12;95264.88;4991079;28;20041;-77
2023/01/01 04:34:55;;;;;;;42.78;24.98;;;;;;;4.59;58.20;95251.59;4992872;28;20400;-75
2023/01/01 04:37:20;;;;;;;33.53;22.00;;;;;;;4.58;58.34;95261.34;4991112;28;20038;-76
2023/01/01 04:39:46;;;;;;;30.83;20.95;;;;;;;4.57;58.45;95257.09;4992192;28;20044;-76
2023/01/01 04:42:11;;;;;;;32.20;19.48;;;;;;;4.74;58.30;95257.13;4991429;28;20049;-76
2023/01/01 04:44:36;;;;;;;28.88;17.10;;;;;;;4.62;58.46;95248.47;4991434;28;20031;-78
2023/01/01 04:47:03;;;;;;;25.52;16.75;;;;;;;4.60;58.43;95253.22;4993446;28;20037;-75
2023/01/01 04:49:28;;;;;;;19.38;13.30;;;;;;;4.63;58.20;95250.09;4993950;28;20034;-76
2023/01/01 04:51:53;;;;;;;16.25;11.52;;;;;;;4.75;58.21;95260.56;4988904;28;20492;-75
2023/01/01 04:54:19;;;;;;;16.25;11.85;;;;;;;4.66;58.18;95253.03;4995699;28;20018;-75
2023/01/01 04:56:44;;;;;;;20.65;13.68;;;;;;;4.68;58.38;95256.22;4991505;28;20471;-77
2023/01/01 04:59:09;;;;;;;22.10;14.05;;;;;;;4.69;57.92;95260.47;4994074;28;20046;-77
2023/01/01 05:01:35;;;;;;;17.73;11.20;;;;;;;4.56;58.44;95258.13;4991276;28;20034;-75
2023/01/01 05:04:00;;;;;;;17.70;11.93;;;;;;;4.57;58.23;95253.66;4993397;28;20040;-76
2023/01/01 05:06:27;;;;;;;21.25;14.38;;;;;;;4.57;58.32;95261.56;4991929;28;20029;-76
2023/01/01 05:08:54;;;;;;;15.98;11.48;;;;;;;4.66;58.57;95265.41;5008159;28;20041;-76
2023/01/01 05:11:24;;;;;;;18.20;12.65;;;;;;;4.69;57.65;95259.66;4990280;28;20030;-75
2023/01/01 05:13:52;;;;;;;21.08;14.35;;;;;;;4.69;57.90;95262.31;4991090;28;20177;-77
2023/01/01 05:16:21;;;;;;;25.95;15.70;;;;;;;4.61;58.44;95271.41;4992676;28;20387;-77
2023/01/01 05:18:47;;;;;;;28.25;16.65;;;;;;;4.61;58.70;95275.88;4989775;28;20026;-75
2023/01/01 05:21:22;;;;;;;28.52;17.95;;;;;;;4.60;58.56;95274.28;4993160;28;20121;-75
2023/01/01 05:23:48;;;;;;;39.72;23.42;;;;;;;4.56;58.88;95271.31;4992008;28;20065;-75
2023/01/01 05:26:15;;;;;;;42.38;24.50;;;;;;;4.58;58.54;95271.88;4991555;28;20137;-76
2023/01/01 05:28:41;;;;;;;37.58;23.23;;;;;;;4.50;58.50;95264.34;4990276;28;20042;-76
2023/01/01 05:31:09;;;;;;;34.20;22.50;;;;;;;4.47;58.42;95254.31;4993093;28;20068;-76
2023/01/01 05:33:35;;;;;;;28.98;17.75;;;;;;;4.69;58.40;95267.56;4990434;28;20024;-75
2023/01/01 05:36:01;;;;;;;19.58;12.98;;;;;;;4.64;58.12;95270.94;5006710;28;20404;-76
2023/01/01 05:38:26;;;;;;;18.65;12.93;;;;;;;4.61;58.21;95275.88;4991734;28;20067;-77
2023/01/01 05:40:52;;;;;;;25.40;14.00;;;;;;;4.41;58.43;95270.25;4992171;28;20125;-75
2023/01/01 05:43:17;;;;;;;17.90;12.07;;;;;;;4.57;58.25;95287.94;4989294;28;20049;-76
2023/01/01 05:45:43;;;;;;;30.73;20.40;;;;;;;4.40;58.25;95269.50;4992053;28;20049;-76
2023/01/01 05:48:10;;;;;;;36.85;21.33;;;;;;;4.52;58.26;95290.47;4989128;28;20045;-77
2023/01/01 05:50:35;;;;;;;45.53;25.15;;;;;;;4.47;58.43;95285.94;4991910;28;20524;-75
2023/01/01 05:53:00;;;;;;;41.08;26.95;;;;;;;4.30;58.34;95266.69;4990331;28;20044;-77
2023/01/01 05:55:26;;;;;;;42.63;28.17;;;;;;;4.43;58.76;95284.00;4990929;28;20042;-75
2023/01/01 05:57:52;;;;;;;40.88;27.73;;;;;;;4.44;58.38;95285.63;4990980;28;20026;-76
2023/01/01 06:00:17;;;;;;;40.13;25.33;;;;;;;4.35;58.53;95282.59;4990712;28;20025;-76
2023/01/01 06:02:43;;;;;;;36.28;23.15;;;;;;;4.34;58.73;95272.28;4989951;28;20026;-76
2023/01/01 06:05:08;;;;;;;37.58;23.35;;;;;;;4.39;58.53;95277.63;4992849;28;20038;-75
2023/01/01 06:07:34;;;;;;;39.33;27.00;;;;;;;4.39;58.85;95280.25;4988660;28;20026;-76
2023/01/01 06:09:59;;;;;;;56.08;34.20;;;;;;;4.33;59.16;95278.56;4993820;28;20506;-76
2023/01/01 06:12:24;;;;;;;38.13;27.17;;;;;;;4.33;59.09;95276.75;4989315;28;20044;-75
2023/01/01 06:14:50;;;;;;;33.30;19.15;;;;;;;4.28;59.01;95269.53;4985912;28;20060;-76
2023/01/01 06:17:15;;;;;;;21.88;14.18;;;;;;;4.23;59.25;95274.72;4990666;28;20956;-76
2023/01/01 06:19:40;;;;;;;21.45;13.23;;;;;;;4.32;58.92;95277.78;4990745;28;20088;-75
2023/01/01 06:22:06;;;;;;;25.48;15.98;;;;;;;4.27;59.40;95275.81;4990024;28;20912;-76
2023/01/01 06:24:31;;;;;;;22.63;15.00;;;;;;;4.19;59.16;95272.78;4994390;28;20041;-75
2023/01/01 06:26:56;;;;;;;30.38;18.23;;;;;;;4.41;58.99;95291.34;4991147;28;20028;-76
2023/01/01 06:29:22;;;;;;;22.05;13.23;;;;;;;4.36;59.22;95299.16;4991503;28;20033;-76
2023/01/01 06:31:47;;;;;;;16.88;12.02;;;;;;;4.18;59.18;95282.53;4992210;28;20158;-76
2023/01/01 06:34:13;;;;;;;18.27;12.15;;;;;;;4.14;59.33;95281.41;4992959;28;20408;-78
2023/01/01 06:36:38;;;;;;;18.77;12.00;;;;;;;4.17;59.28;95296.72;4995109;28;20029;-76
2023/01/01 06:39:03;;;;;;;22.15;13.75;;;;;;;4.33;58.98;95302.28;4994160;28;20045;-76
2023/01/01 06:41:29;;;;;;;25.05;16.92;;;;;;;4.28;59.42;95293.22;4994860;28;20124;-76
2023/01/01 06:43:56;;;;;;;26.85;17.13;;;;;;;4.47;59.59;95316.75;4995869;28;20088;-76
2023/01/01 06:46:33;;;;;;;26.77;16.48;;;;;;;4.46;59.48;95312.50;4988139;28;20148;-75
2023/01/01 06:49:03;;;;;;;35.22;22.50;;;;;;;4.39;59.88;95304.78;4995697;28;20037;-76
2023/01/01 06:51:36;;;;;;;43.50;29.48;;;;;;;4.58;59.96;95315.88;4994965;28;20084;-76
2023/01/01 06:54:03;;;;;;;44.13;29.50;;;;;;;4.68;60.10;95316.06;4994168;28;20586;-75
2023/01/01 06:56:30;;;;;;;42.53;28.20;;;;;;;4.67;59.94;95317.09;5007967;28;20380;-75
2023/01/01 06:58:56;;;;;;;60.10;36.58;;;;;;;4.49;61.27;95320.75;4993726;28;20037;-75
2023/01/01 07:01:24;;;;;;;73.47;45.55;;;;;;;4.35;63.38;95334.47;4992704;28;20200;-75
2023/01/01 07:03:58;;;;;;;67.78;39.97;;;;;;;4.58;62.34;95331.69;4991577;28;20044;-76
2023/01/01 07:06:25;;;;;;;71.22;46.17;;;;;;;4.53;61.72;95311.34;4994851;28;20018;-75
2023/01/01 07:08:50;;;;;;;109.43;58.58;;;;;;;4.82;61.19;95335.78;4990064;28;20547;-76
2023/01/01 07:11:16;;;;;;;98.30;58.58;;;;;;;4.74;61.25;95317.72;5010302;28;20057;-75
2023/01/01 07:13:42;;;;;;;99.57;59.65;;;;;;;4.88;61.22;95334.81;4991824;28;20100;-77
2023/01/01 07:16:08;;;;;;;102.65;61.08;;;;;;;4.87;61.30;95330.59;4995033;28;20107;-75
2023/01/01 07:18:34;;;;;;;110.13;68.93;;;;;;;4.85;61.77;95335.28;5008198;28;20071;-76
2023/01/01 07:21:01;;;;;;;99.97;63.88;;;;;;;4.89;61.46;95319.81;4994282;28;20030;-75
2023/01/01 07:23:29;;;;;;;103.28;64.60;;;;;;;4.89;61.05;95315.34;4987087;28;20401;-75
2023/01/01 07:25:55;;;;;;;104.80;64.70;;;;;;;4.89;61.13;95310.06;4994270;28;20038;-75
2023/01/01 07:28:22;;;;;;;107.90;69.97;;;;;;;5.05;61.42;95319.78;5007779;28;20037;-76
2023/01/01 07:30:48;;;;;;;114.40;74.65;;;;;;;5.05;61.68;95319.78;4992711;28;20037;-75
2023/01/01 07:33:16;;;;;;;114.13;73.32;;;;;;;5.24;60.97;95322.13;4991246;28;20512;-76
2023/01/01 07:35:45;;;;;;;111.18;71.85;;;;;;;5.36;60.50;95325.50;4995126;28;20592;-76
2023/01/01 07:38:12;;;;;;;115.40;74.53;;;;;;;5.37;60.52;95306.00;4989755;28;20100;-75
2023/01/01 07:40:37;;;;;;;155.02;95.50;;;;;;;4.94;63.42;95318.03;4993697;28;20042;-75
2023/01/01 07:43:03;;;;;;;142.07;88.70;;;;;;;4.74;64.70;95323.00;4991654;28;20036;-74
2023/01/01 07:45:29;;;;;;;136.43;87.22;;;;;;;4.84;64.81;95335.53;4993647;28;20354;-77
2023/01/01 07:47:55;;;;;;;138.10;87.82;;;;;;;5.18;63.53;95331.03;4991623;28;20037;-76
2023/01/01 07:50:25;;;;;;;133.57;85.18;;;;;;;5.28;62.80;95315.38;4992205;28;20035;-75
2023/01/01 07:52:51;;;;;;;150.30;94.07;;;;;;;5.01;64.26;95333.69;4991621;28;20043;-75
2023/01/01 07:55:20;;;;;;;150.15;93.55;;;;;;;4.96;65.08;95330.97;4991748;28;20040;-74
2023/01/01 07:57:47;;;;;;;156.27;101.00;;;;;;;4.73;66.18;95326.69;4993895;28;20037;-74
2023/01/01 08:00:17;;;;;;;168.60;104.63;;;;;;;4.81;66.16;95331.53;4992321;28;20050;-74
2023/01/01 08:02:43;;;;;;;179.13;109.78;;;;;;;4.64;67.48;95326.28;4992304;28;20042;-75
2023/01/01 08:05:09;;;;;;;175.00;111.25;;;;;;;4.69;66.96;95318.47;4991911;28;20575;-74
2023/01/01 08:07:34;;;;;;;174.52;110.53;;;;;;;5.01;65.96;95339.75;4992078;28;20590;-74
2023/01/01 08:10:00;;;;;;;184.20;116.63;;;;;;;5.38;64.58;95339.25;4990221;28;20455;-75
2023/01/01 08:12:25;;;;;;;180.07;112.53;;;;;;;5.53;63.31;95342.06;4989533;28;20022;-74
2023/01/01 08:14:51;;;;;;;170.07;108.82;;;;;;;5.66;62.81;95335.66;4987381;28;20103;-75
2023/01/01 08:17:16;;;;;;;171.98;107.88;;;;;;;5.73;62.58;95331.78;4988713;28;20333;-75
2023/01/01 08:19:43;;;;;;;176.52;111.95;;;;;;;5.61;62.92;95344.31;4990036;28;20072;-74
2023/01/01 08:22:09;;;;;;;172.88;108.10;;;;;;;5.47;64.14;95343.06;4989307;28;20061;-74
2023/01/01 08:24:35;;;;;;;157.40;103.78;;;;;;;5.46;63.57;95323.00;4988566;28;20113;-75
2023/01/01 08:27:00;;;;;;;172.02;108.43;;;;;;;5.25;65.12;95355.41;4979024;28;20042;-75
2023/01/01 08:29:25;;;;;;;182.38;112.80;;;;;;;5.53;64.18;95316.47;4985678;28;20033;-74
2023/01/01 08:31:51;;;;;;;154.75;97.95;;;;;;;5.37;65.27;95348.19;4984822;28;20132;-77
2023/01/01 08:34:16;;;;;;;146.98;94.63;;;;;;;5.57;64.84;95353.75;4989727;28;20559;-76
2023/01/01 08:36:41;;;;;;;157.43;99.75;;;;;;;5.50;64.27;95332.00;4990543;28;20440;-75
2023/01/01 08:39:08;;;;;;;158.05;96.78;;;;;;;5.44;65.49;95339.06;4991746;28;20048;-75
2023/01/01 08:41:34;;;;;;;147.52;94.25;;;;;;;5.74;64.08;95345.78;4988545;28;20042;-76
2023/01/01 08:43:59;;;;;;;145.10;92.22;;;;;;;5.53;63.94;95342.06;4990239;28;20518;-74
2023/01/01 08:46:25;;;;;;;151.68;97.55;;;;;;;5.76;63.88;95338.41;4988592;28;20140;-76
2023/01/01 08:48:50;;;;;;;149.20;100.82;;;;;;;6.14;62.74;95348.91;4985037;28;20056;-76
2023/01/01 08:51:16;;;;;;;158.60;99.47;;;;;;;5.70;63.37;95340.19;4986406;28;20399;-73
2023/01/01 08:53:41;;;;;;;154.93;99.18;;;;;;;5.83;64.10;95349.59;4980085;28;20068;-76
2023/01/01 08:56:10;;;;;;;153.82;96.78;;;;;;;5.63;63.92;95347.47;4986897;28;20076;-74
2023/01/01 08:58:38;;;;;;;142.98;91.65;;;;;;;5.58;64.95;95347.41;4982072;28;20046;-77
2023/01/01 09:01:04;;;;;;;140.82;89.05;;;;;;;5.73;64.10;95331.78;5006877;28;20025;-74
2023/01/01 09:03:30;;;;;;;145.95;90.50;;;;;;;5.28;65.90;95333.84;4989294;28;21074;-78
2023/01/01 09:05:55;;;;;;;135.40;86.72;;;;;;;5.38;66.45;95334.75;4989585;28;20030;-78
2023/01/01 09:08:21;;;;;;;131.27;84.57;;;;;;;5.57;65.68;95337.94;4989573;28;20520;-76
2023/01/01 09:10:47;;;;;;;126.63;81.22;;;;;;;5.23;67.14;95325.84;4990447;28;20093;-76
2023/01/01 09:13:14;;;;;;;91.50;57.35;;;;;;;5.32;66.88;95337.56;4992068;28;20034;-76
2023/01/01 09:15:43;;;;;;;115.85;70.95;;;;;;;5.18;68.06;95323.13;4992420;28;20159;-77
2023/01/01 09:18:09;;;;;;;260.20;122.55;;;;;;;5.83;65.92;95316.06;4991508;28;20275;-77
2023/01/01 09:20:36;;;;;;;125.10;78.43;;;;;;;6.17;64.26;95319.38;4983930;28;20040;-77
2023/01/01 09:23:01;;;;;;;122.75;75.72;;;;;;;6.50;62.51;95312.31;4987529;28;20033;-77
2023/01/01 09:25:27;;;;;;;121.22;78.70;;;;;;;6.70;61.45;95302.66;4983049;28;20672;-77
2023/01/01 09:28:04;;;;;;;116.72;78.90;;;;;;;6.52;61.87;95289.84;4987006;28;20131;-77
2023/01/01 09:30:30;;;;;;;118.90;75.40;;;;;;;6.56;62.15;95298.84;4984826;28;20037;-77
2023/01/01 09:32:56;;;;;;;117.82;76.65;;;;;;;6.45;62.63;95297.19;4987392;28;20393;-77
2023/01/01 09:35:21;;;;;;;115.20;75.85;;;;;;;6.45;62.29;95302.47;4986522;28;20042;-76
2023/01/01 09:37:47;;;;;;;129.13;80.88;;;;;;;6.19;64.43;95304.06;4983339;28;20520;-76
2023/01/01 09:40:45;;;;;;;133.40;85.10;;;;;;;6.30;63.30;95273.28;4981121;28;20308;-77
2023/01/01 09:43:48;;;;;;;133.30;83.90;;;;;;;6.50;63.31;95291.16;4976999;28;20125;-77
2023/01/01 09:46:14;;;;;;;143.15;89.70;;;;;;;6.51;62.64;95295.38;4979422;28;20531;-78
2023/01/01 09:48:51;;;;;;;145.27;93.63;;;;;;;6.39;63.51;95287.63;4984836;28;20076;-77
2023/01/01 09:51:19;;;;;;;153.85;92.85;;;;;;;6.52;63.21;95292.47;4982392;28;20571;-77
2023/01/01 09:53:50;;;;;;;159.73;100.47;;;;;;;5.93;65.61;95291.59;4978251;28;20607;-78
2023/01/01 09:56:24;;;;;;;151.13;98.65;;;;;;;6.38;63.71;95278.09;4982780;28;20046;-76
2023/01/01 09:58:50;;;;;;;156.75;96.28;;;;;;;6.79;61.51;95273.94;4979629;28;20042;-78
2023/01/01 10:01:41;;;;;;;153.73;94.43;;;;;;;7.05;60.80;95274.88;4982283;28;20559;-76
2023/01/01 10:04:25;;;;;;;153.48;95.75;;;;;;;7.30;60.51;95277.69;4979801;28;20026;-76
2023/01/01 10:07:14;;;;;;;160.63;101.63;;;;;;;7.08;61.30;95266.47;4982629;28;20026;-77
2023/01/01 10:10:24;;;;;;;163.35;102.70;;;;;;;6.50;63.03;95278.75;4985670;28;20388;-77
2023/01/01 10:13:04;;;;;;;163.60;102.20;;;;;;;6.56;63.48;95272.41;4984483;28;20045;-76
2023/01/01 10:15:40;;;;;;;157.27;102.00;;;;;;;7.02;61.62;95272.75;4977814;28;20066;-77
2023/01/01 10:18:22;;;;;;;156.70;102.65;;;;;;;7.21;60.23;95276.59;4981969;28;20338;-76
2023/01/01 10:21:08;;;;;;;159.32;102.45;;;;;;;7.42;59.96;95269.56;4982946;28;20052;-76
2023/01/01 10:23:40;;;;;;;;;;;;;;;7.27;60.30;95272.91;4982298;28;20046;-76
2023/01/01 10:26:14;;;;;;;155.60;99.93;;;;;;;7.38;59.39;95253.41;4982546;28;19961;-77
2023/01/01 10:28:50;;;;;;;166.73;108.17;;;;;;;7.45;59.48;95269.81;4983881;28;20468;-77
2023/01/01 10:31:24;;;;;;;162.15;99.97;;;;;;;7.47;59.51;95265.09;4982244;28;20060;-77
2023/01/01 10:33:49;;;;;;;147.38;93.65;;;;;;;7.52;59.30;95259.81;4986219;28;20480;-77
2023/01/01 10:36:18;;;;;;;147.05;96.55;;;;;;;6.75;61.54;95264.94;4989096;28;20028;-77
2023/01/01 10:38:45;;;;;;;155.60;100.40;;;;;;;7.01;61.59;95252.66;4988231;28;20476;-77
2023/01/01 10:41:12;;;;;;;157.02;100.40;;;;;;;7.05;60.80;95249.22;4989127;28;20045;-77
2023/01/01 10:43:38;;;;;;;163.15;104.00;;;;;;;7.45;59.40;95240.72;4988977;28;20445;-77
2023/01/01 10:46:05;;;;;;;172.85;110.68;;;;;;;7.19;58.66;95236.38;4987596;28;20096;-77
2023/01/01 10:48:32;;;;;;;158.10;105.32;;;;;;;6.98;59.55;95232.00;4988129;28;20352;-77
2023/01/01 10:51:04;;;;;;;160.63;108.53;;;;;;;6.94;59.81;95217.69;4990651;28;20038;-76
2023/01/01 10:53:39;;;;;;;165.50;105.45;;;;;;;7.25;59.56;95224.72;4984950;28;20034;-76
2023/01/01 10:56:07;;;;;;;161.95;103.20;;;;;;;7.16;60.04;95229.72;4985689;28;20057;-77
2023/01/01 10:58:57;;;;;;;157.27;101.25;;;;;;;7.39;58.62;95228.50;4985032;28;20050;-77
2023/01/01 11:01:24;;;;;;;150.13;97.18;;;;;;;7.51;58.24;95226.44;4986464;28;20037;-77
2023/01/01 11:04:01;;;;;;;148.10;97.57;;;;;;;7.47;58.10;95217.44;4989589;28;20271;-78
2023/01/01 11:06:34;;;;;;;139.40;93.45;;;;;;;7.42;58.11;95221.91;5007286;28;20499;-76
2023/01/01 11:09:03;;;;;;;146.10;94.32;;;;;;;7.99;57.04;95216.53;4989782;28;20137;-77
2023/01/01 11:11:47;;;;;;;135.05;91.20;;;;;;;8.11;56.56;95214.44;4990838;28;20042;-77
2023/01/01 11:14:24;;;;;;;133.75;93.35;;;;;;;8.04;55.69;95203.28;4983738;28;20061;-76
2023/01/01 11:16:50;;;;;;;135.90;88.07;;;;;;;8.06;56.24;95195.91;4987022;28;20042;-78
2023/01/01 11:19:27;;;;;;;136.60;89.85;;;;;;;7.98;55.44;95204.34;4988895;28;20057;-77
2023/01/01 11:21:53;;;;;;;129.48;86.95;;;;;;;7.70;56.58;95197.63;5003397;28;20507;-76
2023/01/01 11:24:24;;;;;;;124.93;80.22;;;;;;;7.39;57.17;95185.34;5004179;28;20022;-76
2023/01/01 11:26:51;;;;;;;132.45;83.78;;;;;;;7.77;56.49;95202.72;4989553;28;20045;-78
2023/01/01 11:29:28;;;;;;;127.07;82.05;;;;;;;7.88;56.07;95201.66;4988782;28;20038;-77
2023/01/01 11:31:55;;;;;;;115.13;76.70;;;;;;;8.12;55.88;95189.53;4991724;28;20038;-77
2023/01/01 11:34:29;;;;;;;110.00;74.32;;;;;;;8.19;55.50;95199.88;4990342;28;20065;-77
2023/01/01 11:37:13;;;;;;;115.88;73.70;;;;;;;8.53;54.99;95185.81;4989362;28;20057;-76
2023/01/01 11:39:43;;;;;;;105.95;71.57;;;;;;;8.68;54.04;95157.69;4988851;28;20022;-76